Station Historical Data from High Park Village Toronto
 
Daily Summary for November 28, 2020 Units:  Metric    English   Both
Daily Weekly Monthly Yearly
  Current: High: Low: Average:
Temperature: 4.6 °C 11.3 °C 3.6 °C 5.8 °C
Dew Point: -0.4 °C 4.2 °C -1.8 °C 0.5 °C
Humidity: 70% 86% 47% 70%
Wind Speed: 1.6km/h 8km/h 0km/h 2.1km/h
Wind Gust: 3.2km/h 19.3km/h - -
WindSouth - - South
Pressure: 1017.6 hPa 1018.7 hPa 1014.5 hPa -
Precipitation: 0.0 mm      
 
 
Tabular Data for November 28, 2020
Time Temperature Dew Point Pressure Wind Wind Speed Wind Gust Humidity Rainfall Rate (Hourly) solar Conditions
00:01 6.7 °C 4 °C 1015.3 hPa SE 1.6 km/h 3.2 km/h 83% 0.0 mm 0 W/m2
00:06 6.7 °C 4.2 °C 1015.2 hPa Calm   3.2 km/h 84% 0.0 mm 0 W/m2
00:11 6.6 °C 3.9 °C 1015.2 hPa Calm   3.2 km/h 83% 0.0 mm 0 W/m2
00:16 6.6 °C 3.9 °C 1015.1 hPa Calm   3.2 km/h 83% 0.0 mm 0 W/m2
00:21 6.6 °C 4.1 °C 1015.1 hPa Calm   3.2 km/h 84% 0.0 mm 0 W/m2
00:26 6.7 °C 4 °C 1015.1 hPa Calm   3.2 km/h 83% 0.0 mm 0 W/m2
00:31 6.7 °C 4 °C 1015.0 hPa Calm   3.2 km/h 83% 0.0 mm 0 W/m2
00:36 6.7 °C 4.1 °C 1015.0 hPa South 1.6 km/h 4.8 km/h 83% 0.0 mm 0 W/m2
00:41 6.7 °C 4.1 °C 1014.9 hPa Calm   3.2 km/h 83% 0.0 mm 0 W/m2
00:46 6.7 °C 4.1 °C 1014.9 hPa South 1.6 km/h 4.8 km/h 83% 0.0 mm 0 W/m2
00:51 6.7 °C 4.1 °C 1014.9 hPa Calm   3.2 km/h 83% 0.0 mm 0 W/m2
00:56 6.7 °C 4.1 °C 1014.9 hPa Calm   1.6 km/h 83% 0.0 mm 0 W/m2
01:01 6.7 °C 4.1 °C 1014.9 hPa Calm   3.2 km/h 83% 0.0 mm 0 W/m2
01:06 6.7 °C 4.1 °C 1014.9 hPa Calm   3.2 km/h 83% 0.0 mm 0 W/m2
01:11 6.7 °C 4.1 °C 1014.9 hPa Calm   3.2 km/h 83% 0.0 mm 0 W/m2
01:16 6.7 °C 4.1 °C 1014.9 hPa Calm   1.6 km/h 83% 0.0 mm 0 W/m2
01:21 6.7 °C 4.1 °C 1014.8 hPa Calm   3.2 km/h 83% 0.0 mm 0 W/m2
01:26 6.7 °C 4.1 °C 1014.7 hPa Calm   1.6 km/h 83% 0.0 mm 0 W/m2
01:31 6.7 °C 4.1 °C 1014.8 hPa Calm   4.8 km/h 83% 0.0 mm 0 W/m2
01:36 6.7 °C 4 °C 1014.9 hPa East 1.6 km/h 3.2 km/h 83% 0.0 mm 0 W/m2
01:41 6.6 °C 3.9 °C 1014.9 hPa SSE 1.6 km/h 3.2 km/h 83% 0.0 mm 0 W/m2
01:46 6.5 °C 4 °C 1014.9 hPa Calm   3.2 km/h 84% 0.0 mm 0 W/m2
01:51 6.5 °C 4 °C 1014.8 hPa ESE 1.6 km/h 4.8 km/h 84% 0.0 mm 0 W/m2
01:56 6.4 °C 3.9 °C 1014.7 hPa SE 1.6 km/h 4.8 km/h 84% 0.0 mm 0 W/m2
02:01 6.4 °C 3.9 °C 1014.6 hPa SE 1.6 km/h 3.2 km/h 84% 0.0 mm 0 W/m2
02:06 6.4 °C 3.9 °C 1014.6 hPa SSE 1.6 km/h 4.8 km/h 84% 0.0 mm 0 W/m2
02:11 6.4 °C 3.9 °C 1014.6 hPa South 1.6 km/h 3.2 km/h 84% 0.0 mm 0 W/m2
02:16 6.4 °C 3.9 °C 1014.6 hPa Calm   3.2 km/h 84% 0.0 mm 0 W/m2
02:21 6.4 °C 3.9 °C 1014.6 hPa Calm   3.2 km/h 84% 0.0 mm 0 W/m2
02:26 6.3 °C 3.8 °C 1014.6 hPa Calm   3.2 km/h 84% 0.0 mm 0 W/m2
02:31 6.3 °C 3.9 °C 1014.7 hPa SSE 1.6 km/h 4.8 km/h 85% 0.0 mm 0 W/m2
02:36 6.3 °C 3.8 °C 1014.6 hPa Calm   3.2 km/h 84% 0.0 mm 0 W/m2
02:41 6.2 °C 3.9 °C 1014.5 hPa Calm   3.2 km/h 85% 0.0 mm 0 W/m2
02:46 6.2 °C 3.8 °C 1014.6 hPa Calm   3.2 km/h 85% 0.0 mm 0 W/m2
02:51 6.1 °C 3.8 °C 1014.7 hPa SE 1.6 km/h 3.2 km/h 85% 0.0 mm 0 W/m2
02:56 6.2 °C 3.8 °C 1014.7 hPa Calm   3.2 km/h 85% 0.0 mm 0 W/m2
03:01 6.2 °C 3.8 °C 1014.7 hPa Calm   3.2 km/h 85% 0.0 mm 0 W/m2
03:06 6.2 °C 3.9 °C 1014.8 hPa SSE 1.6 km/h 3.2 km/h 85% 0.0 mm 0 W/m2
03:11 6.2 °C 3.8 °C 1014.8 hPa Calm   3.2 km/h 85% 0.0 mm 0 W/m2
03:16 6.2 °C 3.9 °C 1014.8 hPa Calm   3.2 km/h 85% 0.0 mm 0 W/m2
03:21 6.2 °C 4.1 °C 1014.9 hPa Calm   3.2 km/h 86% 0.0 mm 0 W/m2
03:26 6.2 °C 3.9 °C 1015.0 hPa ENE 1.6 km/h 6.4 km/h 85% 0.0 mm 0 W/m2
03:31 6 °C 3.7 °C 1015.0 hPa ESE 1.6 km/h 9.7 km/h 85% 0.0 mm 0 W/m2
03:36 5.8 °C 3.5 °C 1015.1 hPa NE 3.2 km/h 9.7 km/h 85% 0.0 mm 0 W/m2
03:41 5.6 °C 3.1 °C 1015.1 hPa NNE 4.8 km/h 14.5 km/h 84% 0.0 mm 0 W/m2
03:46 5.4 °C 2.8 °C 1015.2 hPa NNE 4.8 km/h 14.5 km/h 83% 0.0 mm 0 W/m2
03:51 5.3 °C 2.7 °C 1015.2 hPa NNE 8 km/h 14.5 km/h 83% 0.0 mm 0 W/m2
03:56 5.3 °C 2.4 °C 1015.2 hPa North 4.8 km/h 14.5 km/h 82% 0.0 mm 0 W/m2
04:01 5.2 °C 2.4 °C 1015.2 hPa NNE 3.2 km/h 14.5 km/h 82% 0.0 mm 0 W/m2
04:06 5.1 °C 2.3 °C 1015.0 hPa North 3.2 km/h 19.3 km/h 82% 0.0 mm 0 W/m2
04:11 5.1 °C 2.2 °C 1015.0 hPa North 3.2 km/h 11.3 km/h 82% 0.0 mm 0 W/m2
04:16 5.1 °C 2.2 °C 1015.0 hPa North 3.2 km/h 11.3 km/h 82% 0.0 mm 0 W/m2
04:21 5 °C 2.2 °C 1015.0 hPa NNE 4.8 km/h 11.3 km/h 82% 0.0 mm 0 W/m2
04:26 4.9 °C 2.1 °C 1014.9 hPa North 4.8 km/h 11.3 km/h 82% 0.0 mm 0 W/m2
04:31 4.8 °C 1.9 °C 1014.9 hPa NNE 3.2 km/h 12.9 km/h 81% 0.0 mm 0 W/m2
04:36 4.8 °C 1.8 °C 1014.9 hPa North 3.2 km/h 11.3 km/h 81% 0.0 mm 0 W/m2
04:41 4.8 °C 1.8 °C 1014.9 hPa North 4.8 km/h 12.9 km/h 81% 0.0 mm 0 W/m2
04:46 4.8 °C 1.6 °C 1014.9 hPa North 4.8 km/h 11.3 km/h 80% 0.0 mm 0 W/m2
04:51 4.8 °C 1.6 °C 1014.9 hPa NNW 4.8 km/h 14.5 km/h 80% 0.0 mm 0 W/m2
04:56 4.8 °C 1.6 °C 1014.8 hPa North 4.8 km/h 14.5 km/h 80% 0.0 mm 0 W/m2
05:01 4.7 °C 1.4 °C 1015.0 hPa North 1.6 km/h 11.3 km/h 79% 0.0 mm 0 W/m2
05:06 4.8 °C 1.5 °C 1015.2 hPa SSW 1.6 km/h 8 km/h 79% 0.0 mm 0 W/m2
05:11 4.8 °C 1.5 °C 1015.2 hPa SSW 1.6 km/h 6.4 km/h 79% 0.0 mm 0 W/m2
05:16 4.8 °C 1.5 °C 1015.3 hPa South 1.6 km/h 19.3 km/h 79% 0.0 mm 0 W/m2
05:21 4.8 °C 1.5 °C 1015.3 hPa SE 1.6 km/h 8 km/h 79% 0.0 mm 0 W/m2
05:26 4.9 °C 1.6 °C 1015.3 hPa SSW 3.2 km/h 12.9 km/h 79% 0.0 mm 0 W/m2
05:31 4.9 °C 1.4 °C 1015.3 hPa SW 3.2 km/h 8 km/h 78% 0.0 mm 0 W/m2
05:36 4.8 °C 1.5 °C 1015.4 hPa SSW 3.2 km/h 12.9 km/h 79% 0.0 mm 0 W/m2
05:41 4.8 °C 1.4 °C 1015.6 hPa SW 3.2 km/h 11.3 km/h 79% 0.0 mm 0 W/m2
05:46 4.8 °C 1.4 °C 1015.5 hPa WSW 3.2 km/h 12.9 km/h 79% 0.0 mm 0 W/m2
05:51 4.7 °C 1.3 °C 1015.6 hPa West 3.2 km/h 12.9 km/h 79% 0.0 mm 0 W/m2
05:56 4.7 °C 1.3 °C 1015.7 hPa SSE 3.2 km/h 12.9 km/h 79% 0.0 mm 0 W/m2
06:01 4.6 °C 1.2 °C 1015.8 hPa SSE 1.6 km/h 9.7 km/h 79% 0.0 mm 0 W/m2
06:06 4.6 °C 1.4 °C 1015.8 hPa South 3.2 km/h 12.9 km/h 80% 0.0 mm 0 W/m2
06:11 4.5 °C 1.3 °C 1016.0 hPa SW 1.6 km/h 9.7 km/h 80% 0.0 mm 0 W/m2
06:16 4.5 °C 1.3 °C 1016.0 hPa South 3.2 km/h 6.4 km/h 80% 0.0 mm 0 W/m2
06:21 4.5 °C 1.4 °C 1015.9 hPa North 3.2 km/h 8 km/h 80% 0.0 mm 0 W/m2
06:26 4.4 °C 1.2 °C 1015.8 hPa WSW 3.2 km/h 9.7 km/h 79% 0.0 mm 0 W/m2
06:31 4.4 °C 1.1 °C 1015.8 hPa West 3.2 km/h 11.3 km/h 79% 0.0 mm 0 W/m2
06:36 4.4 °C 1.1 °C 1015.8 hPa NNW 3.2 km/h 9.7 km/h 79% 0.0 mm 0 W/m2
06:41 4.4 °C 0.9 °C 1015.9 hPa NNW 4.8 km/h 12.9 km/h 78% 0.0 mm 0 W/m2
06:46 4.3 °C 0.8 °C 1016.0 hPa North 3.2 km/h 9.7 km/h 78% 0.0 mm 0 W/m2
06:51 4.3 °C 0.6 °C 1016.0 hPa North 3.2 km/h 11.3 km/h 77% 0.0 mm 0 W/m2
06:56 4.3 °C 0.4 °C 1016.0 hPa North 3.2 km/h 16.1 km/h 76% 0.0 mm 0 W/m2
07:01 4.2 °C 0.4 °C 1016.0 hPa ENE 3.2 km/h 12.9 km/h 76% 0.0 mm 0 W/m2
07:06 4.2 °C 0.4 °C 1016.1 hPa SW 3.2 km/h 12.9 km/h 76% 0.0 mm 0 W/m2
07:11 4.2 °C 0.1 °C 1016.1 hPa NW 4.8 km/h 12.9 km/h 75% 0.0 mm 0 W/m2
07:16 4.2 °C 0.1 °C 1016.2 hPa NNW 3.2 km/h 12.9 km/h 75% 0.0 mm 0 W/m2
07:21 4.2 °C 0.1 °C 1016.3 hPa West 3.2 km/h 12.9 km/h 75% 0.0 mm 0 W/m2
07:26 4.1 °C 0.3 °C 1016.4 hPa South 3.2 km/h 9.7 km/h 76% 0.0 mm 0 W/m2
07:31 4.1 °C 0.2 °C 1016.5 hPa WSW 3.2 km/h 9.7 km/h 76% 0.0 mm 0 W/m2
07:36 4.1 °C 0.2 °C 1016.6 hPa SW 3.2 km/h 12.9 km/h 76% 0.0 mm 0 W/m2
07:41 4 °C 0.2 °C 1016.7 hPa WNW 3.2 km/h 11.3 km/h 76% 0.0 mm 0 W/m2
07:46 3.9 °C 0.1 °C 1016.7 hPa NNW 3.2 km/h 12.9 km/h 76% 0.0 mm 0 W/m2
07:51 3.9 °C 0.1 °C 1016.9 hPa NNW 3.2 km/h 11.3 km/h 76% 0.0 mm 0 W/m2
07:56 3.8 °C 0 °C 1016.9 hPa WNW 3.2 km/h 14.5 km/h 76% 0.0 mm 0 W/m2
08:01 3.8 °C -0.1 °C 1017.1 hPa SSE 3.2 km/h 8 km/h 76% 0.0 mm 0 W/m2
08:06 3.7 °C -0.1 °C 1017.2 hPa South 3.2 km/h 11.3 km/h 76% 0.0 mm 0 W/m2
08:11 3.7 °C -0.1 °C 1017.3 hPa West 3.2 km/h 11.3 km/h 76% 0.0 mm 0 W/m2
08:16 3.7 °C -0.2 °C 1017.3 hPa NNW 3.2 km/h 11.3 km/h 76% 0.0 mm 0 W/m2
08:21 3.7 °C -0.2 °C 1017.4 hPa South 3.2 km/h 11.3 km/h 76% 0.0 mm 0 W/m2
08:26 3.6 °C -0.1 °C 1017.3 hPa SSW 1.6 km/h 14.5 km/h 77% 0.0 mm 0 W/m2
08:31 3.6 °C -0.3 °C 1017.2 hPa West 4.8 km/h 12.9 km/h 76% 0.0 mm 0 W/m2
08:36 3.6 °C -0.1 °C 1017.3 hPa SW 3.2 km/h 11.3 km/h 77% 0.0 mm 0 W/m2
08:41 3.6 °C -0.1 °C 1017.4 hPa SSW 3.2 km/h 11.3 km/h 77% 0.0 mm 0 W/m2
08:46 3.7 °C 0 °C 1017.5 hPa South 1.6 km/h 9.7 km/h 77% 0.0 mm 0 W/m2
08:51 3.7 °C -0.1 °C 1017.7 hPa South 3.2 km/h 11.3 km/h 76% 0.0 mm 0 W/m2
08:56 3.8 °C 0 °C 1017.7 hPa South 1.6 km/h 12.9 km/h 76% 0.0 mm 0 W/m2
09:01 3.9 °C 0.1 °C 1017.6 hPa South 1.6 km/h 8 km/h 76% 0.0 mm 0 W/m2
09:06 3.9 °C 0.1 °C 1017.7 hPa WSW 3.2 km/h 12.9 km/h 76% 0.0 mm 0 W/m2
09:11 4 °C 0 °C 1017.8 hPa WSW 1.6 km/h 8 km/h 75% 0.0 mm 0 W/m2
09:16 4.1 °C 0.1 °C 1017.8 hPa South 1.6 km/h 4.8 km/h 75% 0.0 mm 0 W/m2
09:21 4.2 °C 0.1 °C 1017.8 hPa SE 1.6 km/h 8 km/h 75% 0.0 mm 0 W/m2
09:26 4.1 °C 0.1 °C 1017.9 hPa South 3.2 km/h 11.3 km/h 75% 0.0 mm 0 W/m2
09:31 4.2 °C 0.1 °C 1017.8 hPa South 3.2 km/h 9.7 km/h 75% 0.0 mm 0 W/m2
09:36 4.2 °C 0.1 °C 1017.8 hPa SW 1.6 km/h 6.4 km/h 75% 0.0 mm 0 W/m2
09:41 4.2 °C 0 °C 1017.9 hPa SSW 3.2 km/h 6.4 km/h 74% 0.0 mm 0 W/m2
09:46 4.3 °C 0.1 °C 1017.9 hPa North 1.6 km/h 9.7 km/h 74% 0.0 mm 0 W/m2
09:51 4.4 °C 0 °C 1017.9 hPa NW 3.2 km/h 16.1 km/h 73% 0.0 mm 0 W/m2
09:56 4.4 °C -0.2 °C 1017.9 hPa North 3.2 km/h 14.5 km/h 72% 0.0 mm 0 W/m2
10:01 4.5 °C -0.1 °C 1018.0 hPa NNE 1.6 km/h 9.7 km/h 72% 0.0 mm 0 W/m2
10:06 4.6 °C -0.2 °C 1018.1 hPa North 3.2 km/h 11.3 km/h 71% 0.0 mm 0 W/m2
10:11 4.7 °C -0.3 °C 1018.0 hPa West 4.8 km/h 12.9 km/h 70% 0.0 mm 0 W/m2
10:16 4.7 °C -0.3 °C 1018.2 hPa NW 3.2 km/h 19.3 km/h 70% 0.0 mm 0 W/m2
10:21 4.7 °C -0.3 °C 1018.3 hPa NW 3.2 km/h 11.3 km/h 70% 0.0 mm 0 W/m2
10:26 4.9 °C -0.2 °C 1018.2 hPa NNW 3.2 km/h 9.7 km/h 70% 0.0 mm 0 W/m2
10:31 5 °C 0 °C 1018.4 hPa North 1.6 km/h 8 km/h 70% 0.0 mm 0 W/m2
10:36 5.1 °C -0.1 °C 1018.3 hPa North 3.2 km/h 9.7 km/h 69% 0.0 mm 0 W/m2
10:41 5.1 °C -0.1 °C 1018.3 hPa SE 3.2 km/h 14.5 km/h 69% 0.0 mm 0 W/m2
10:46 5.1 °C -0.2 °C 1018.3 hPa SSE 1.6 km/h 14.5 km/h 69% 0.0 mm 0 W/m2
10:51 5.1 °C -0.2 °C 1018.2 hPa SW 3.2 km/h 14.5 km/h 69% 0.0 mm 0 W/m2
10:56 5.1 °C -0.1 °C 1018.2 hPa West 3.2 km/h 9.7 km/h 69% 0.0 mm 0 W/m2
11:01 5.2 °C 0 °C 1018.1 hPa NNE 1.6 km/h 6.4 km/h 69% 0.0 mm 0 W/m2
11:06 5.3 °C 0.1 °C 1018.2 hPa ESE 3.2 km/h 8 km/h 69% 0.0 mm 0 W/m2
11:11 5.3 °C -0.2 °C 1018.3 hPa ENE 1.6 km/h 8 km/h 68% 0.0 mm 0 W/m2
11:16 5.3 °C -0.3 °C 1018.3 hPa West 1.6 km/h 6.4 km/h 67% 0.0 mm 0 W/m2
11:21 5.4 °C -0.2 °C 1018.4 hPa West 3.2 km/h 12.9 km/h 67% 0.0 mm 0 W/m2
11:26 5.5 °C -0.3 °C 1018.5 hPa WSW 3.2 km/h 9.7 km/h 66% 0.0 mm 0 W/m2
11:31 5.6 °C -0.2 °C 1018.5 hPa SW 1.6 km/h 11.3 km/h 66% 0.0 mm 0 W/m2
11:36 5.8 °C -0.3 °C 1018.6 hPa North 3.2 km/h 9.7 km/h 65% 0.0 mm 0 W/m2
11:41 6 °C -0.3 °C 1018.5 hPa West 1.6 km/h 9.7 km/h 64% 0.0 mm 0 W/m2
11:51 6.7 °C -0.3 °C 1018.5 hPa NW 3.2 km/h 12.9 km/h 61% 0.0 mm 0 W/m2
11:56 7.6 °C -0.2 °C 1018.5 hPa NNW 1.6 km/h 8 km/h 58% 0.0 mm 0 W/m2
12:01 7.9 °C -0.1 °C 1018.5 hPa North 1.6 km/h 4.8 km/h 57% 0.0 mm 0 W/m2
12:06 8 °C 0 °C 1018.6 hPa SE 1.6 km/h 12.9 km/h 57% 0.0 mm 0 W/m2
12:11 7.8 °C 0.1 °C 1018.7 hPa SE 1.6 km/h 8 km/h 58% 0.0 mm 0 W/m2
12:16 7.3 °C -0.6 °C 1018.7 hPa SW 1.6 km/h 8 km/h 57% 0.0 mm 0 W/m2
12:21 7.4 °C -0.3 °C 1018.6 hPa WNW 3.2 km/h 12.9 km/h 58% 0.0 mm 0 W/m2
12:26 7.3 °C -0.4 °C 1018.7 hPa ENE 3.2 km/h 12.9 km/h 58% 0.0 mm 0 W/m2
12:31 7.3 °C -0.4 °C 1018.6 hPa NNE 1.6 km/h 11.3 km/h 58% 0.0 mm 0 W/m2
12:36 8.9 °C 0.3 °C 1018.4 hPa NE 1.6 km/h 9.7 km/h 55% 0.0 mm 0 W/m2
12:41 8.8 °C -0.1 °C 1018.2 hPa NNW 1.6 km/h 12.9 km/h 54% 0.0 mm 0 W/m2
12:46 9.7 °C 0.3 °C 1018.4 hPa NNE 1.6 km/h 8 km/h 52% 0.0 mm 0 W/m2
12:51 9.7 °C 0 °C 1018.4 hPa East 1.6 km/h 6.4 km/h 51% 0.0 mm 0 W/m2
12:56 9.7 °C 0.1 °C 1018.5 hPa ESE 1.6 km/h 9.7 km/h 51% 0.0 mm 0 W/m2
13:01 9.7 °C 0.1 °C 1018.4 hPa SE 1.6 km/h 8 km/h 51% 0.0 mm 0 W/m2
13:06 9.2 °C -0.1 °C 1018.4 hPa South 1.6 km/h 8 km/h 52% 0.0 mm 0 W/m2
13:11 9.2 °C 0.1 °C 1018.3 hPa SE 1.6 km/h 9.7 km/h 53% 0.0 mm 0 W/m2
13:16 8.9 °C -0.4 °C 1018.3 hPa SSE 3.2 km/h 16.1 km/h 52% 0.0 mm 0 W/m2
13:21 8.8 °C -0.6 °C 1018.3 hPa East 1.6 km/h 14.5 km/h 52% 0.0 mm 0 W/m2
13:26 9.6 °C 0.5 °C 1018.3 hPa ENE 1.6 km/h 4.8 km/h 53% 0.0 mm 0 W/m2
13:31 9.9 °C 0.6 °C 1018.2 hPa SE 1.6 km/h 9.7 km/h 52% 0.0 mm 0 W/m2
13:36 10.4 °C 0.7 °C 1018.1 hPa South 1.6 km/h 6.4 km/h 51% 0.0 mm 0 W/m2
13:41 10 °C 0.6 °C 1018.2 hPa South 1.6 km/h 4.8 km/h 52% 0.0 mm 0 W/m2
13:46 10 °C 0.3 °C 1018.3 hPa NE 1.6 km/h 8 km/h 51% 0.0 mm 0 W/m2
13:51 9.8 °C 0.3 °C 1018.2 hPa East 1.6 km/h 6.4 km/h 52% 0.0 mm 0 W/m2
13:56 10.1 °C 0.7 °C 1018.1 hPa SSE 1.6 km/h 8 km/h 52% 0.0 mm 0 W/m2
14:01 10.6 °C 0.8 °C 1018.1 hPa SSE 1.6 km/h 6.4 km/h 51% 0.0 mm 0 W/m2
14:06 11.3 °C 1 °C 1018.0 hPa South 1.6 km/h 6.4 km/h 49% 0.0 mm 0 W/m2
14:11 10.8 °C -0.1 °C 1018.1 hPa ESE 1.6 km/h 8 km/h 47% 0.0 mm 0 W/m2
14:16 10.1 °C -0.2 °C 1018.0 hPa East 1.6 km/h 3.2 km/h 49% 0.0 mm 0 W/m2
14:21 9.4 °C -0.4 °C 1018.0 hPa ESE 1.6 km/h 4.8 km/h 50% 0.0 mm 0 W/m2
14:26 9 °C -0.6 °C 1018.0 hPa East 1.6 km/h 11.3 km/h 51% 0.0 mm 0 W/m2
14:31 8.5 °C -0.8 °C 1018.0 hPa NE 1.6 km/h 6.4 km/h 52% 0.0 mm 0 W/m2
14:36 8.2 °C -0.8 °C 1018.0 hPa South 1.6 km/h 6.4 km/h 53% 0.0 mm 0 W/m2
14:41 8 °C -1 °C 1017.9 hPa South 1.6 km/h 6.4 km/h 53% 0.0 mm 0 W/m2
14:46 7.9 °C -0.8 °C 1017.8 hPa SE 1.6 km/h 6.4 km/h 54% 0.0 mm 0 W/m2
14:51 7.9 °C -1.1 °C 1017.8 hPa South 1.6 km/h 6.4 km/h 53% 0.0 mm 0 W/m2
14:56 7.8 °C -1.2 °C 1017.8 hPa ENE 1.6 km/h 6.4 km/h 53% 0.0 mm 0 W/m2
15:01 7.6 °C -1.4 °C 1017.7 hPa SSE 3.2 km/h 8 km/h 53% 0.0 mm 0 W/m2
15:06 7.7 °C -1.1 °C 1017.8 hPa SSE 1.6 km/h 6.4 km/h 54% 0.0 mm 0 W/m2
15:11 7.7 °C -1.1 °C 1017.8 hPa SSE 1.6 km/h 4.8 km/h 54% 0.0 mm 0 W/m2
15:16 7.6 °C -1.1 °C 1017.8 hPa SSE 1.6 km/h 4.8 km/h 54% 0.0 mm 0 W/m2
15:21 7.6 °C -1.6 °C 1017.8 hPa South 1.6 km/h 4.8 km/h 52% 0.0 mm 0 W/m2
15:26 7.6 °C -1.7 °C 1017.5 hPa Calm   3.2 km/h 52% 0.0 mm 0 W/m2
15:31 7.6 °C -1.7 °C 1017.5 hPa SE 1.6 km/h 4.8 km/h 52% 0.0 mm 0 W/m2
15:36 7.6 °C -1.4 °C 1017.5 hPa South 1.6 km/h 4.8 km/h 53% 0.0 mm 0 W/m2
15:41 7.6 °C -1.1 °C 1017.4 hPa South 1.6 km/h 8 km/h 54% 0.0 mm 0 W/m2
15:46 7.6 °C -1.2 °C 1017.4 hPa South 3.2 km/h 9.7 km/h 54% 0.0 mm 0 W/m2
15:51 7.4 °C -1 °C 1017.3 hPa SSW 1.6 km/h 11.3 km/h 55% 0.0 mm 0 W/m2
15:56 7.4 °C -1.1 °C 1017.3 hPa SSW 1.6 km/h 6.4 km/h 55% 0.0 mm 0 W/m2
16:01 7.3 °C -1.2 °C 1017.3 hPa South 3.2 km/h 14.5 km/h 55% 0.0 mm 0 W/m2
16:06 7.2 °C -1.2 °C 1017.2 hPa South 3.2 km/h 14.5 km/h 55% 0.0 mm 0 W/m2
16:11 7.2 °C -1.3 °C 1017.3 hPa South 3.2 km/h 11.3 km/h 55% 0.0 mm 0 W/m2
16:16 7.1 °C -1.3 °C 1017.4 hPa South 3.2 km/h 8 km/h 55% 0.0 mm 0 W/m2
16:21 7 °C -1.4 °C 1017.4 hPa South 1.6 km/h 6.4 km/h 55% 0.0 mm 0 W/m2
16:26 6.9 °C -1.5 °C 1017.5 hPa SSE 1.6 km/h 9.7 km/h 55% 0.0 mm 0 W/m2
16:31 6.9 °C -1.6 °C 1017.6 hPa SSE 1.6 km/h 4.8 km/h 55% 0.0 mm 0 W/m2
16:36 6.8 °C -1.6 °C 1017.6 hPa South 1.6 km/h 8 km/h 55% 0.0 mm 0 W/m2
16:41 6.8 °C -1.3 °C 1017.6 hPa South 3.2 km/h 8 km/h 56% 0.0 mm 0 W/m2
16:46 6.8 °C -1.4 °C 1017.5 hPa South 3.2 km/h 8 km/h 56% 0.0 mm 0 W/m2
16:51 6.7 °C -1.4 °C 1017.4 hPa SSW 1.6 km/h 8 km/h 56% 0.0 mm 0 W/m2
16:56 6.7 °C -1.5 °C 1017.5 hPa SSW 1.6 km/h 6.4 km/h 56% 0.0 mm 0 W/m2
17:01 6.6 °C -1.3 °C 1017.5 hPa South 3.2 km/h 6.4 km/h 57% 0.0 mm 0 W/m2
17:06 6.5 °C -1.2 °C 1017.5 hPa SSW 3.2 km/h 8 km/h 58% 0.0 mm 0 W/m2
17:11 6.4 °C -1.2 °C 1017.4 hPa SSW 3.2 km/h 8 km/h 58% 0.0 mm 0 W/m2
17:16 6.4 °C -1.3 °C 1017.4 hPa SSE 1.6 km/h 9.7 km/h 58% 0.0 mm 0 W/m2
17:21 6.3 °C -1.1 °C 1017.5 hPa SSE 1.6 km/h 8 km/h 59% 0.0 mm 0 W/m2
17:26 6.2 °C -1.2 °C 1017.5 hPa South 3.2 km/h 6.4 km/h 59% 0.0 mm 0 W/m2
17:31 6.2 °C -1.5 °C 1017.5 hPa South 1.6 km/h 4.8 km/h 58% 0.0 mm 0 W/m2
17:36 6.1 °C -1.6 °C 1017.6 hPa South 3.2 km/h 8 km/h 58% 0.0 mm 0 W/m2
17:41 6.1 °C -1.6 °C 1017.6 hPa SSW 1.6 km/h 6.4 km/h 58% 0.0 mm 0 W/m2
17:46 6 °C -1.6 °C 1017.5 hPa South 1.6 km/h 8 km/h 58% 0.0 mm 0 W/m2
17:51 6 °C -1.7 °C 1017.5 hPa South 1.6 km/h 8 km/h 58% 0.0 mm 0 W/m2
17:56 5.9 °C -1.7 °C 1017.4 hPa South 1.6 km/h 8 km/h 58% 0.0 mm 0 W/m2
18:01 5.9 °C -1.8 °C 1017.4 hPa South 1.6 km/h 6.4 km/h 58% 0.0 mm 0 W/m2
18:06 5.8 °C -1.6 °C 1017.3 hPa South 3.2 km/h 6.4 km/h 59% 0.0 mm 0 W/m2
18:11 5.8 °C -1.6 °C 1017.3 hPa South 3.2 km/h 9.7 km/h 59% 0.0 mm 0 W/m2
18:16 5.7 °C -1.7 °C 1017.3 hPa SSE 3.2 km/h 8 km/h 59% 0.0 mm 0 W/m2
18:21 5.7 °C -1.5 °C 1017.3 hPa South 1.6 km/h 6.4 km/h 60% 0.0 mm 0 W/m2
18:26 5.7 °C -1.7 °C 1017.3 hPa South 3.2 km/h 8 km/h 59% 0.0 mm 0 W/m2
18:31 5.6 °C -1.6 °C 1017.2 hPa South 1.6 km/h 9.7 km/h 60% 0.0 mm 0 W/m2
18:36 5.6 °C -1.6 °C 1017.2 hPa SSW 3.2 km/h 9.7 km/h 60% 0.0 mm 0 W/m2
18:41 5.6 °C -1.6 °C 1017.2 hPa SSW 1.6 km/h 6.4 km/h 60% 0.0 mm 0 W/m2
18:46 5.5 °C -1.7 °C 1017.2 hPa SSW 3.2 km/h 8 km/h 60% 0.0 mm 0 W/m2
18:51 5.4 °C -1.4 °C 1017.2 hPa SSW 1.6 km/h 8 km/h 61% 0.0 mm 0 W/m2
18:56 5.4 °C -1.5 °C 1017.3 hPa South 3.2 km/h 8 km/h 61% 0.0 mm 0 W/m2
19:01 5.4 °C -1.6 °C 1017.2 hPa South 3.2 km/h 8 km/h 61% 0.0 mm 0 W/m2
19:06 5.3 °C -1.6 °C 1017.2 hPa South 3.2 km/h 6.4 km/h 61% 0.0 mm 0 W/m2
19:11 5.3 °C -1.4 °C 1017.2 hPa SSW 3.2 km/h 9.7 km/h 62% 0.0 mm 0 W/m2
19:16 5.3 °C -1.4 °C 1017.2 hPa South 3.2 km/h 8 km/h 62% 0.0 mm 0 W/m2
19:21 5.2 °C -1.2 °C 1017.0 hPa South 3.2 km/h 8 km/h 63% 0.0 mm 0 W/m2
19:26 5.2 °C -1.1 °C 1017.0 hPa South 3.2 km/h 9.7 km/h 64% 0.0 mm 0 W/m2
19:31 5.1 °C -1.2 °C 1017.0 hPa South 3.2 km/h 9.7 km/h 64% 0.0 mm 0 W/m2
19:36 5.1 °C -1 °C 1017.1 hPa South 3.2 km/h 9.7 km/h 65% 0.0 mm 0 W/m2
19:41 5 °C -0.8 °C 1017.1 hPa South 3.2 km/h 8 km/h 66% 0.0 mm 0 W/m2
19:46 4.9 °C -0.8 °C 1017.1 hPa South 3.2 km/h 9.7 km/h 66% 0.0 mm 0 W/m2
19:51 4.9 °C -0.7 °C 1017.1 hPa South 3.2 km/h 9.7 km/h 67% 0.0 mm 0 W/m2
19:56 4.9 °C -0.7 °C 1017.2 hPa SSE 3.2 km/h 9.7 km/h 67% 0.0 mm 0 W/m2
20:01 4.8 °C -0.8 °C 1017.2 hPa South 3.2 km/h 9.7 km/h 67% 0.0 mm 0 W/m2
20:06 4.8 °C -0.6 °C 1017.3 hPa South 3.2 km/h 9.7 km/h 68% 0.0 mm 0 W/m2
20:11 4.8 °C -0.6 °C 1017.4 hPa South 3.2 km/h 9.7 km/h 68% 0.0 mm 0 W/m2
20:16 4.8 °C -0.6 °C 1017.3 hPa South 1.6 km/h 6.4 km/h 68% 0.0 mm 0 W/m2
20:21 4.7 °C -0.5 °C 1017.4 hPa SSE 3.2 km/h 11.3 km/h 69% 0.0 mm 0 W/m2
20:26 4.7 °C -0.5 °C 1017.3 hPa SSE 1.6 km/h 6.4 km/h 69% 0.0 mm 0 W/m2
20:31 4.7 °C -0.3 °C 1017.3 hPa SSE 3.2 km/h 9.7 km/h 70% 0.0 mm 0 W/m2
20:36 4.7 °C -0.3 °C 1017.3 hPa South 1.6 km/h 8 km/h 70% 0.0 mm 0 W/m2
20:41 4.7 °C -0.2 °C 1017.3 hPa South 1.6 km/h 6.4 km/h 71% 0.0 mm 0 W/m2
20:56 4.6 °C 0 °C 1017.5 hPa South 1.6 km/h 6.4 km/h 72% 0.0 mm 0 W/m2
21:01 4.6 °C -0.1 °C 1017.5 hPa South 1.6 km/h 4.8 km/h 72% 0.0 mm 0 W/m2
21:06 4.6 °C -0.1 °C 1017.4 hPa South 1.6 km/h 8 km/h 72% 0.0 mm 0 W/m2
21:11 4.5 °C -0.1 °C 1017.4 hPa South 1.6 km/h 6.4 km/h 72% 0.0 mm 0 W/m2
21:16 4.5 °C 0.1 °C 1017.4 hPa SSE 1.6 km/h 4.8 km/h 73% 0.0 mm 0 W/m2
21:21 4.5 °C 0.1 °C 1017.5 hPa SSE 1.6 km/h 3.2 km/h 73% 0.0 mm 0 W/m2
21:26 4.5 °C 0.1 °C 1017.5 hPa SE 1.6 km/h 4.8 km/h 73% 0.0 mm 0 W/m2
21:31 4.4 °C 0.1 °C 1017.5 hPa SSE 1.6 km/h 4.8 km/h 73% 0.0 mm 0 W/m2
21:36 4.4 °C 0.1 °C 1017.4 hPa South 1.6 km/h 4.8 km/h 73% 0.0 mm 0 W/m2
21:41 4.4 °C 0.1 °C 1017.3 hPa SSE 1.6 km/h 4.8 km/h 73% 0.0 mm 0 W/m2
21:46 4.4 °C 0.1 °C 1017.4 hPa Calm   3.2 km/h 73% 0.0 mm 0 W/m2
21:51 4.4 °C 0.1 °C 1017.4 hPa South 1.6 km/h 3.2 km/h 73% 0.0 mm 0 W/m2
21:56 4.4 °C -0.2 °C 1017.4 hPa SSE 1.6 km/h 4.8 km/h 72% 0.0 mm 0 W/m2
22:01 4.4 °C -0.2 °C 1017.4 hPa SE 1.6 km/h 3.2 km/h 72% 0.0 mm 0 W/m2
22:06 4.4 °C -0.2 °C 1017.4 hPa South 1.6 km/h 6.4 km/h 72% 0.0 mm 0 W/m2
22:11 4.4 °C -0.2 °C 1017.4 hPa SSW 1.6 km/h 4.8 km/h 72% 0.0 mm 0 W/m2
22:16 4.4 °C -0.2 °C 1017.4 hPa Calm   3.2 km/h 72% 0.0 mm 0 W/m2
22:21 4.5 °C -0.1 °C 1017.5 hPa SSE 1.6 km/h 3.2 km/h 72% 0.0 mm 0 W/m2
22:26 4.5 °C -0.1 °C 1017.5 hPa SSE 1.6 km/h 4.8 km/h 72% 0.0 mm 0 W/m2
22:31 4.5 °C -0.1 °C 1017.5 hPa South 1.6 km/h 4.8 km/h 72% 0.0 mm 0 W/m2
22:36 4.6 °C -0.3 °C 1017.6 hPa Calm   1.6 km/h 71% 0.0 mm 0 W/m2
22:41 4.6 °C -0.3 °C 1017.7 hPa Calm   3.2 km/h 71% 0.0 mm 0 W/m2
22:46 4.5 °C -0.3 °C 1017.8 hPa Calm   3.2 km/h 71% 0.0 mm 0 W/m2
22:51 4.6 °C -0.3 °C 1017.8 hPa Calm   3.2 km/h 71% 0.0 mm 0 W/m2
22:56 4.6 °C -0.2 °C 1017.8 hPa Calm   3.2 km/h 71% 0.0 mm 0 W/m2
23:01 4.6 °C -0.2 °C 1017.9 hPa South 1.6 km/h 4.8 km/h 71% 0.0 mm 0 W/m2
23:06 4.6 °C -0.2 °C 1017.9 hPa Calm   4.8 km/h 71% 0.0 mm 0 W/m2
23:11 4.6 °C -0.2 °C 1017.8 hPa Calm   1.6 km/h 71% 0.0 mm 0 W/m2
23:16 4.6 °C -0.2 °C 1017.8 hPa ESE 1.6 km/h 3.2 km/h 71% 0.0 mm 0 W/m2
23:21 4.6 °C -0.2 °C 1017.8 hPa SE 1.6 km/h 1.6 km/h 71% 0.0 mm 0 W/m2
23:26 4.6 °C -0.4 °C 1017.8 hPa Calm   3.2 km/h 70% 0.0 mm 0 W/m2
23:31 4.6 °C -0.2 °C 1017.7 hPa Calm   3.2 km/h 71% 0.0 mm 0 W/m2
23:36 4.6 °C -0.2 °C 1017.6 hPa Calm   3.2 km/h 71% 0.0 mm 0 W/m2
23:41 4.6 °C -0.2 °C 1017.6 hPa Calm   3.2 km/h 71% 0.0 mm 0 W/m2
23:46 4.6 °C -0.4 °C 1017.6 hPa South 1.6 km/h 3.2 km/h 70% 0.0 mm 0 W/m2
Historical Data from High Park Village Toronto since August 2007
Compliments of Weather Underground - 2 mb